Aérodrome :
LOGIN :

S'inscrire | Disclaimer

   EN    FR    IT 

 










Légende :    VFR   VFR Marginal   IFR   IFR Intensif   IFR Très Intensif
Visi : 
Plafond : 
>= 8 km
>= 3000ft
5 à 8 km
1000 à 3000 ft
1500m à 5 km
500 à 1000 ft
800 à 1500m
200 à 500 ft
< 800m
< 200 ft
Symboles :   Orages  Brouillard  Fortes neiges  Fortes précipitations  Vent > 20 kt
SIGMETs :   Divers  Orages  Givrage  Turbulence  Onde Orograph.  Cendres Volcan.







- Altitude de l'aérodrome : 511 ft
- Code IATA : LHA


EDTL - Lahr Schwarzwald

DERNIER METAR :
  • 141250Z 21011KT 9999 FEW032 BKN050 08/M01 Q1002

METARs EXPIRÉS :
  • 141220Z 21013KT 9999 FEW033 BKN049 08/M00 Q1002
  • 141150Z 20010KT 9999 SCT025 BKN048 08/01 Q1003
  • 141120Z 19011KT 9999 SCT026 07/01 Q1003
  • 141050Z 18012KT CAVOK 06/02 Q1004

TAF TAF EDTL
Valide du 14 à 12h jusqu'au 14 à 21h UTC


141100Z 1412/1421 20012KT 9999 SCT040
TEMPO 1412/1421 23020G35KT SHRA BKN025CB
PROB30
TEMPO 1415/1421 TSRA BKN015CB
Pas de NOTAMs connus pour ce terrain.



MET'MAP, la Météo Aéronautique d'un coup d'oeil ! - Copyright ORBIFLY Décembre 2007 - Disclaimer

ORBIFLY MET'MAP TEAM :

Programmation & Développement : Alexandra Zaïnal
Conception & Développement : Baudouin d'Aumeries
Co-Programmation & Développement : Marc-Olivier Méhu
Soutien technique & logistique : Manuel Goepfert

Contact : metmap@orbifly.com




SOURCES & CREDITS :

   NOAA